Aérodrome :







RETROUVEZ-NOUS SUR...

 
LOGIN :

S'inscrire | Disclaimer

   EN    FR    IT 

 









Légende :    VFR   VFR Marginal   IFR   IFR Intensif   IFR Très Intensif
Visi : 
Plafond : 
>= 8 km
>= 3000ft
5 à 8 km
1000 à 3000 ft
1500m à 5 km
500 à 1000 ft
800 à 1500m
200 à 500 ft
< 800m
< 200 ft
Symboles :   Orages  Brouillard  Fortes neiges  Fortes précipitations  Vent > 20 kt






- Altitude de l'aérodrome : 70 ft


KIWI - Wiscasset

DERNIER METAR :
  • 090353Z AUTO 00000KT 3/4SM BR VV002 17/17 A2994 RMK AO2 SLP139 T01720167

METARs EXPIRÉS :
  • 090348Z AUTO 00000KT 1/2SM FG VV002 17/17 A2994 RMK AO2
  • 090339Z AUTO 00000KT 3/4SM BR BKN001 17/17 A2994 RMK AO2 T01720167
  • 090326Z AUTO 00000KT 3SM BR BKN001 17/16 A2994 RMK AO2 T01670161
  • 090306Z AUTO 00000KT 3SM BR FEW002 17/16 A2994 RMK AO2 T01670161
  • 090253Z AUTO 00000KT 2SM BR FEW002 17/16 A2993 RMK AO2 VIS 1 1/2V4 SLP136 60000 T01670161 50016
  • 090246Z AUTO 00000KT 1 3/4SM BR FEW002 17/16 A2994 RMK AO2 VIS 1 1/4V5 T01720161
  • 090153Z AUTO 00000KT 10SM CLR 18/17 A2994 RMK AO2 SLP139 T01780172

TAF N/A
FIR KZBW / Amérique du Nord



MET'MAP, la Météo Aéronautique d'un coup d'oeil ! - Copyright ORBIFLY Décembre 2007 - Disclaimer

ORBIFLY MET'MAP TEAM :

Programmation & Développement : Alexandra Zaïnal
Sur une idée originale de : Baudouin d'Aumeries
Assistance à la programmation : Marc-Olivier Méhu
Soutien technique & logistique : Manuel Goepfert

Contact : metmap@orbifly.com




SOURCES & CREDITS :

   NOAA